Childress Municipal Airport Childress US
ICAO: KCDS
IATA: CDS
Category: Medium
Scheduled Services: No

Elevation: 1954 ft
TransAlt. 18000 ft.

Airport Communications:
ASOS:135.125
FORT WORTH CNTR:133.5
FORT WORTH RDO:122.45
CTAF/UNICOM:122.8

KCDS Zoom In..

If you have problems with the map follow the link
https://www.worldairports.se/pages/airport.php?
ICAO=KCDS

Runways:

(A) RW 04 length 4425 ft width 60 ft
---- / hdg 41

(B) RW 18 length 5949 ft width 75 ft
---- / hdg 176

(C) RW 22 length 4425 ft width 60 ft
---- / hdg 221

(D) RW 36 length 5949 ft width 75 ft
---- / hdg 356

Location; KCDS
Day. 18 / Time. 06.53 Zulu
* Altimeter: 30.46
* Temperature: 11° c. 51.8°f.
* Wind from: 180° Speed 03 kn.
Dewpoint: 07° c.
Visibility: 10 Statute Miles.
Clouds: Overcast 4400 ft.

KCDS 180653Z AUTO 18003KT 10SM OVC044 11/07 A3046 RMK AO2 SLP306 T01110072


Wind From 180°
Speed 03 kn.

 
 
jpsmedia.com for Web Design worldairports.se 2018   terms of use